sensor_id;sensor_type;location;lat;lon;timestamp;P1;durP1;ratioP1;P2;durP2;ratioP2
76409;SDS011;65238;42.662;23.280;2023-11-21T00:01:58;39.92;;;16.38;;
76409;SDS011;65238;42.662;23.280;2023-11-21T00:04:24;35.42;;;16.33;;
76409;SDS011;65238;42.662;23.280;2023-11-21T00:06:50;31.90;;;15.75;;
76409;SDS011;65238;42.662;23.280;2023-11-21T00:09:16;33.33;;;15.52;;
76409;SDS011;65238;42.662;23.280;2023-11-21T00:11:42;40.00;;;16.05;;
76409;SDS011;65238;42.662;23.280;2023-11-21T00:14:09;33.72;;;15.63;;
76409;SDS011;65238;42.662;23.280;2023-11-21T00:16:36;33.03;;;14.35;;
76409;SDS011;65238;42.662;23.280;2023-11-21T00:19:01;35.13;;;16.58;;
76409;SDS011;65238;42.662;23.280;2023-11-21T00:21:27;29.63;;;14.55;;
76409;SDS011;65238;42.662;23.280;2023-11-21T00:23:52;34.47;;;14.88;;
76409;SDS011;65238;42.662;23.280;2023-11-21T00:26:18;33.25;;;15.57;;
76409;SDS011;65238;42.662;23.280;2023-11-21T00:28:43;33.53;;;15.43;;
76409;SDS011;65238;42.662;23.280;2023-11-21T00:31:09;34.67;;;15.13;;
76409;SDS011;65238;42.662;23.280;2023-11-21T00:33:34;27.38;;;13.38;;
76409;SDS011;65238;42.662;23.280;2023-11-21T00:35:59;29.90;;;12.30;;
76409;SDS011;65238;42.662;23.280;2023-11-21T00:38:25;29.30;;;12.57;;
76409;SDS011;65238;42.662;23.280;2023-11-21T00:40:52;22.52;;;11.68;;
76409;SDS011;65238;42.662;23.280;2023-11-21T00:43:21;27.70;;;12.20;;
76409;SDS011;65238;42.662;23.280;2023-11-21T00:45:49;28.35;;;12.05;;
76409;SDS011;65238;42.662;23.280;2023-11-21T00:48:16;24.05;;;10.95;;
76409;SDS011;65238;42.662;23.280;2023-11-21T00:50:41;23.75;;;11.40;;
76409;SDS011;65238;42.662;23.280;2023-11-21T00:53:07;25.65;;;11.50;;
76409;SDS011;65238;42.662;23.280;2023-11-21T00:55:32;26.40;;;11.80;;
76409;SDS011;65238;42.662;23.280;2023-11-21T00:57:58;26.23;;;12.07;;
76409;SDS011;65238;42.662;23.280;2023-11-21T01:00:25;38.20;;;15.38;;
76409;SDS011;65238;42.662;23.280;2023-11-21T01:02:50;30.35;;;13.25;;
76409;SDS011;65238;42.662;23.280;2023-11-21T01:05:16;29.15;;;12.55;;
76409;SDS011;65238;42.662;23.280;2023-11-21T01:07:41;28.15;;;13.13;;
76409;SDS011;65238;42.662;23.280;2023-11-21T01:10:07;34.45;;;14.05;;
76409;SDS011;65238;42.662;23.280;2023-11-21T01:12:34;32.63;;;14.23;;
76409;SDS011;65238;42.662;23.280;2023-11-21T01:15:01;33.85;;;15.27;;
76409;SDS011;65238;42.662;23.280;2023-11-21T01:17:27;28.42;;;14.45;;
76409;SDS011;65238;42.662;23.280;2023-11-21T01:19:53;27.70;;;14.43;;
76409;SDS011;65238;42.662;23.280;2023-11-21T01:22:18;31.33;;;13.93;;
76409;SDS011;65238;42.662;23.280;2023-11-21T01:24:50;28.33;;;12.65;;
76409;SDS011;65238;42.662;23.280;2023-11-21T01:27:16;28.23;;;11.95;;
76409;SDS011;65238;42.662;23.280;2023-11-21T01:29:43;26.30;;;12.75;;
76409;SDS011;65238;42.662;23.280;2023-11-21T01:32:09;20.17;;;11.05;;
76409;SDS011;65238;42.662;23.280;2023-11-21T01:34:35;27.17;;;12.30;;
76409;SDS011;65238;42.662;23.280;2023-11-21T01:37:00;29.70;;;11.82;;
76409;SDS011;65238;42.662;23.280;2023-11-21T01:39:27;26.30;;;11.35;;
76409;SDS011;65238;42.662;23.280;2023-11-21T01:41:53;19.08;;;10.00;;
76409;SDS011;65238;42.662;23.280;2023-11-21T01:44:18;24.20;;;11.50;;
76409;SDS011;65238;42.662;23.280;2023-11-21T01:46:44;24.58;;;11.20;;
76409;SDS011;65238;42.662;23.280;2023-11-21T01:49:11;24.50;;;10.85;;
76409;SDS011;65238;42.662;23.280;2023-11-21T01:51:38;25.85;;;11.15;;
76409;SDS011;65238;42.662;23.280;2023-11-21T01:54:06;23.92;;;11.85;;
76409;SDS011;65238;42.662;23.280;2023-11-21T01:56:31;32.72;;;13.18;;
76409;SDS011;65238;42.662;23.280;2023-11-21T01:58:57;28.50;;;13.35;;
76409;SDS011;65238;42.662;23.280;2023-11-21T02:01:23;28.63;;;13.75;;
76409;SDS011;65238;42.662;23.280;2023-11-21T02:03:50;30.42;;;14.80;;
76409;SDS011;65238;42.662;23.280;2023-11-21T02:06:16;26.98;;;14.20;;
76409;SDS011;65238;42.662;23.280;2023-11-21T02:08:41;34.70;;;14.68;;
76409;SDS011;65238;42.662;23.280;2023-11-21T02:11:09;30.63;;;13.90;;
76409;SDS011;65238;42.662;23.280;2023-11-21T02:13:37;28.02;;;12.52;;
76409;SDS011;65238;42.662;23.280;2023-11-21T02:16:03;31.10;;;13.82;;
76409;SDS011;65238;42.662;23.280;2023-11-21T02:18:30;28.85;;;13.52;;
76409;SDS011;65238;42.662;23.280;2023-11-21T02:20:56;24.45;;;13.00;;
76409;SDS011;65238;42.662;23.280;2023-11-21T02:23:21;31.52;;;12.75;;
76409;SDS011;65238;42.662;23.280;2023-11-21T02:25:48;24.95;;;12.75;;
76409;SDS011;65238;42.662;23.280;2023-11-21T02:28:13;24.77;;;11.93;;
76409;SDS011;65238;42.662;23.280;2023-11-21T02:30:41;29.92;;;12.65;;
76409;SDS011;65238;42.662;23.280;2023-11-21T02:33:07;30.10;;;12.10;;
76409;SDS011;65238;42.662;23.280;2023-11-21T02:35:33;21.95;;;12.50;;
76409;SDS011;65238;42.662;23.280;2023-11-21T02:37:59;23.25;;;11.23;;
76409;SDS011;65238;42.662;23.280;2023-11-21T02:40:24;25.42;;;11.80;;
76409;SDS011;65238;42.662;23.280;2023-11-21T02:42:51;26.42;;;12.15;;
76409;SDS011;65238;42.662;23.280;2023-11-21T02:45:17;27.83;;;12.57;;
76409;SDS011;65238;42.662;23.280;2023-11-21T02:47:44;23.45;;;11.25;;
76409;SDS011;65238;42.662;23.280;2023-11-21T02:50:09;21.10;;;10.70;;
76409;SDS011;65238;42.662;23.280;2023-11-21T02:52:35;21.67;;;10.10;;
76409;SDS011;65238;42.662;23.280;2023-11-21T02:55:01;21.88;;;10.02;;
76409;SDS011;65238;42.662;23.280;2023-11-21T02:57:27;20.63;;;9.95;;
76409;SDS011;65238;42.662;23.280;2023-11-21T02:59:53;20.33;;;9.77;;
76409;SDS011;65238;42.662;23.280;2023-11-21T03:02:19;20.30;;;11.05;;
76409;SDS011;65238;42.662;23.280;2023-11-21T03:04:45;19.05;;;10.75;;
76409;SDS011;65238;42.662;23.280;2023-11-21T03:07:10;24.98;;;11.93;;
76409;SDS011;65238;42.662;23.280;2023-11-21T03:09:36;22.52;;;11.60;;
76409;SDS011;65238;42.662;23.280;2023-11-21T03:12:01;19.58;;;10.98;;
76409;SDS011;65238;42.662;23.280;2023-11-21T03:14:27;20.63;;;10.77;;
76409;SDS011;65238;42.662;23.280;2023-11-21T03:16:52;21.45;;;11.32;;
76409;SDS011;65238;42.662;23.280;2023-11-21T03:19:18;22.75;;;11.07;;
76409;SDS011;65238;42.662;23.280;2023-11-21T03:21:43;20.92;;;10.88;;
76409;SDS011;65238;42.662;23.280;2023-11-21T03:24:08;24.75;;;12.70;;
76409;SDS011;65238;42.662;23.280;2023-11-21T03:26:34;25.23;;;13.15;;
76409;SDS011;65238;42.662;23.280;2023-11-21T03:28:59;25.65;;;13.10;;
76409;SDS011;65238;42.662;23.280;2023-11-21T03:31:25;24.60;;;12.25;;
76409;SDS011;65238;42.662;23.280;2023-11-21T03:33:51;28.77;;;12.45;;
76409;SDS011;65238;42.662;23.280;2023-11-21T03:36:18;28.38;;;13.23;;
76409;SDS011;65238;42.662;23.280;2023-11-21T03:38:44;25.38;;;13.82;;
76409;SDS011;65238;42.662;23.280;2023-11-21T03:41:10;28.30;;;12.73;;
76409;SDS011;65238;42.662;23.280;2023-11-21T03:43:36;26.52;;;14.25;;
76409;SDS011;65238;42.662;23.280;2023-11-21T03:46:02;23.70;;;13.45;;
76409;SDS011;65238;42.662;23.280;2023-11-21T03:48:27;28.55;;;12.77;;
76409;SDS011;65238;42.662;23.280;2023-11-21T03:50:53;23.80;;;13.25;;
76409;SDS011;65238;42.662;23.280;2023-11-21T03:53:18;28.50;;;13.13;;
76409;SDS011;65238;42.662;23.280;2023-11-21T03:55:44;25.83;;;12.43;;
76409;SDS011;65238;42.662;23.280;2023-11-21T03:58:09;26.63;;;12.68;;
76409;SDS011;65238;42.662;23.280;2023-11-21T04:00:35;32.97;;;14.05;;
76409;SDS011;65238;42.662;23.280;2023-11-21T04:03:00;30.48;;;13.30;;
76409;SDS011;65238;42.662;23.280;2023-11-21T04:05:25;33.00;;;14.93;;
76409;SDS011;65238;42.662;23.280;2023-11-21T04:07:51;28.65;;;14.77;;
76409;SDS011;65238;42.662;23.280;2023-11-21T04:10:17;33.80;;;15.43;;
76409;SDS011;65238;42.662;23.280;2023-11-21T04:12:43;27.40;;;14.80;;
76409;SDS011;65238;42.662;23.280;2023-11-21T04:15:08;32.95;;;15.50;;
76409;SDS011;65238;42.662;23.280;2023-11-21T04:17:34;31.25;;;15.80;;
76409;SDS011;65238;42.662;23.280;2023-11-21T04:20:01;37.83;;;16.80;;
76409;SDS011;65238;42.662;23.280;2023-11-21T04:22:28;32.10;;;15.63;;
76409;SDS011;65238;42.662;23.280;2023-11-21T04:24:53;30.52;;;15.82;;
76409;SDS011;65238;42.662;23.280;2023-11-21T04:27:20;35.75;;;15.43;;
76409;SDS011;65238;42.662;23.280;2023-11-21T04:29:46;36.40;;;15.80;;
76409;SDS011;65238;42.662;23.280;2023-11-21T04:32:11;34.15;;;15.25;;
76409;SDS011;65238;42.662;23.280;2023-11-21T04:34:37;31.02;;;15.07;;
76409;SDS011;65238;42.662;23.280;2023-11-21T04:37:03;29.00;;;14.55;;
76409;SDS011;65238;42.662;23.280;2023-11-21T04:39:31;27.90;;;14.40;;
76409;SDS011;65238;42.662;23.280;2023-11-21T04:41:57;29.70;;;14.30;;
76409;SDS011;65238;42.662;23.280;2023-11-21T04:44:22;31.25;;;15.15;;
76409;SDS011;65238;42.662;23.280;2023-11-21T04:46:47;24.83;;;13.57;;
76409;SDS011;65238;42.662;23.280;2023-11-21T04:49:13;29.48;;;13.55;;
76409;SDS011;65238;42.662;23.280;2023-11-21T04:51:39;26.27;;;13.60;;
76409;SDS011;65238;42.662;23.280;2023-11-21T04:54:05;27.75;;;13.48;;
76409;SDS011;65238;42.662;23.280;2023-11-21T04:56:30;44.55;;;20.23;;
76409;SDS011;65238;42.662;23.280;2023-11-21T04:58:56;37.10;;;18.90;;
76409;SDS011;65238;42.662;23.280;2023-11-21T05:01:21;33.22;;;16.63;;
76409;SDS011;65238;42.662;23.280;2023-11-21T05:03:47;34.03;;;15.55;;
76409;SDS011;65238;42.662;23.280;2023-11-21T05:06:14;31.67;;;15.43;;
76409;SDS011;65238;42.662;23.280;2023-11-21T05:08:39;31.95;;;16.13;;
76409;SDS011;65238;42.662;23.280;2023-11-21T05:11:05;37.03;;;16.48;;
76409;SDS011;65238;42.662;23.280;2023-11-21T05:13:33;38.25;;;18.52;;
76409;SDS011;65238;42.662;23.280;2023-11-21T05:15:59;39.95;;;19.55;;
76409;SDS011;65238;42.662;23.280;2023-11-21T05:18:24;37.72;;;16.60;;
76409;SDS011;65238;42.662;23.280;2023-11-21T05:20:54;42.75;;;17.85;;
76409;SDS011;65238;42.662;23.280;2023-11-21T05:23:20;37.30;;;17.95;;
76409;SDS011;65238;42.662;23.280;2023-11-21T05:25:46;35.50;;;16.73;;
76409;SDS011;65238;42.662;23.280;2023-11-21T05:28:12;43.42;;;18.52;;
76409;SDS011;65238;42.662;23.280;2023-11-21T05:30:37;39.95;;;18.58;;
76409;SDS011;65238;42.662;23.280;2023-11-21T05:33:06;38.80;;;18.65;;
76409;SDS011;65238;42.662;23.280;2023-11-21T05:35:31;39.83;;;19.48;;
76409;SDS011;65238;42.662;23.280;2023-11-21T05:37:57;39.17;;;18.13;;
76409;SDS011;65238;42.662;23.280;2023-11-21T05:40:22;32.60;;;16.55;;
76409;SDS011;65238;42.662;23.280;2023-11-21T05:42:48;31.10;;;15.73;;
76409;SDS011;65238;42.662;23.280;2023-11-21T05:45:13;39.47;;;17.27;;
76409;SDS011;65238;42.662;23.280;2023-11-21T05:47:41;36.67;;;16.75;;
76409;SDS011;65238;42.662;23.280;2023-11-21T05:50:10;34.90;;;17.02;;
76409;SDS011;65238;42.662;23.280;2023-11-21T05:55:05;35.70;;;16.88;;
76409;SDS011;65238;42.662;23.280;2023-11-21T05:57:37;36.13;;;16.98;;
76409;SDS011;65238;42.662;23.280;2023-11-21T06:00:10;37.65;;;16.88;;
76409;SDS011;65238;42.662;23.280;2023-11-21T06:02:50;37.80;;;18.73;;
76409;SDS011;65238;42.662;23.280;2023-11-21T06:05:17;39.65;;;17.10;;
76409;SDS011;65238;42.662;23.280;2023-11-21T06:07:44;37.70;;;16.63;;
76409;SDS011;65238;42.662;23.280;2023-11-21T06:10:10;33.50;;;17.73;;
76409;SDS011;65238;42.662;23.280;2023-11-21T06:12:37;36.50;;;17.30;;
76409;SDS011;65238;42.662;23.280;2023-11-21T06:15:05;34.30;;;18.27;;
76409;SDS011;65238;42.662;23.280;2023-11-21T06:17:33;39.92;;;20.30;;
76409;SDS011;65238;42.662;23.280;2023-11-21T06:20:02;45.28;;;19.45;;
76409;SDS011;65238;42.662;23.280;2023-11-21T06:22:34;45.65;;;20.35;;
76409;SDS011;65238;42.662;23.280;2023-11-21T06:25:03;42.13;;;20.98;;
76409;SDS011;65238;42.662;23.280;2023-11-21T06:27:32;49.67;;;22.13;;
76409;SDS011;65238;42.662;23.280;2023-11-21T06:29:59;45.58;;;23.13;;
76409;SDS011;65238;42.662;23.280;2023-11-21T06:32:24;57.45;;;26.23;;
76409;SDS011;65238;42.662;23.280;2023-11-21T06:34:51;58.70;;;27.98;;
76409;SDS011;65238;42.662;23.280;2023-11-21T06:37:19;64.80;;;30.15;;
76409;SDS011;65238;42.662;23.280;2023-11-21T06:39:48;62.13;;;30.10;;
76409;SDS011;65238;42.662;23.280;2023-11-21T06:42:14;59.90;;;29.42;;
76409;SDS011;65238;42.662;23.280;2023-11-21T06:44:40;63.50;;;30.33;;
76409;SDS011;65238;42.662;23.280;2023-11-21T06:47:06;60.55;;;29.63;;
76409;SDS011;65238;42.662;23.280;2023-11-21T06:49:32;58.20;;;29.05;;
76409;SDS011;65238;42.662;23.280;2023-11-21T06:51:57;58.28;;;29.50;;
76409;SDS011;65238;42.662;23.280;2023-11-21T06:54:23;69.40;;;31.77;;
76409;SDS011;65238;42.662;23.280;2023-11-21T06:56:49;63.05;;;31.30;;
76409;SDS011;65238;42.662;23.280;2023-11-21T06:59:15;65.90;;;31.73;;
76409;SDS011;65238;42.662;23.280;2023-11-21T07:01:41;54.58;;;28.63;;
76409;SDS011;65238;42.662;23.280;2023-11-21T07:04:06;56.20;;;29.00;;
76409;SDS011;65238;42.662;23.280;2023-11-21T07:06:32;54.25;;;28.55;;
76409;SDS011;65238;42.662;23.280;2023-11-21T07:08:58;56.05;;;28.90;;
76409;SDS011;65238;42.662;23.280;2023-11-21T07:11:23;51.65;;;28.23;;
76409;SDS011;65238;42.662;23.280;2023-11-21T07:13:50;58.30;;;30.05;;
76409;SDS011;65238;42.662;23.280;2023-11-21T07:16:15;54.80;;;29.38;;
76409;SDS011;65238;42.662;23.280;2023-11-21T07:18:41;54.47;;;28.67;;
76409;SDS011;65238;42.662;23.280;2023-11-21T07:21:06;55.08;;;27.98;;
76409;SDS011;65238;42.662;23.280;2023-11-21T07:23:33;58.40;;;28.83;;
76409;SDS011;65238;42.662;23.280;2023-11-21T07:25:59;52.88;;;26.75;;
76409;SDS011;65238;42.662;23.280;2023-11-21T07:28:24;50.28;;;25.25;;
76409;SDS011;65238;42.662;23.280;2023-11-21T07:30:50;42.55;;;23.63;;
76409;SDS011;65238;42.662;23.280;2023-11-21T07:33:16;46.60;;;23.83;;
76409;SDS011;65238;42.662;23.280;2023-11-21T07:35:42;49.55;;;26.45;;
76409;SDS011;65238;42.662;23.280;2023-11-21T07:38:08;59.38;;;28.85;;
76409;SDS011;65238;42.662;23.280;2023-11-21T07:40:33;59.40;;;27.65;;
76409;SDS011;65238;42.662;23.280;2023-11-21T07:42:59;52.58;;;26.30;;
76409;SDS011;65238;42.662;23.280;2023-11-21T07:45:25;56.28;;;26.55;;
76409;SDS011;65238;42.662;23.280;2023-11-21T07:47:53;50.58;;;27.23;;
76409;SDS011;65238;42.662;23.280;2023-11-21T07:50:19;55.28;;;27.23;;
76409;SDS011;65238;42.662;23.280;2023-11-21T07:52:45;49.67;;;25.55;;
76409;SDS011;65238;42.662;23.280;2023-11-21T07:55:11;52.33;;;25.23;;
76409;SDS011;65238;42.662;23.280;2023-11-21T07:57:37;52.40;;;26.50;;
76409;SDS011;65238;42.662;23.280;2023-11-21T08:00:03;51.47;;;25.48;;
76409;SDS011;65238;42.662;23.280;2023-11-21T08:02:31;50.13;;;24.75;;
76409;SDS011;65238;42.662;23.280;2023-11-21T08:04:57;43.75;;;24.70;;
76409;SDS011;65238;42.662;23.280;2023-11-21T08:07:22;49.92;;;24.75;;
76409;SDS011;65238;42.662;23.280;2023-11-21T08:09:48;45.63;;;24.75;;
76409;SDS011;65238;42.662;23.280;2023-11-21T08:12:15;50.28;;;24.13;;
76409;SDS011;65238;42.662;23.280;2023-11-21T08:14:40;49.47;;;23.35;;
76409;SDS011;65238;42.662;23.280;2023-11-21T08:17:06;48.53;;;25.02;;
76409;SDS011;65238;42.662;23.280;2023-11-21T08:19:31;45.72;;;24.48;;
76409;SDS011;65238;42.662;23.280;2023-11-21T08:21:58;47.95;;;24.33;;
76409;SDS011;65238;42.662;23.280;2023-11-21T08:24:24;47.33;;;24.63;;
76409;SDS011;65238;42.662;23.280;2023-11-21T08:26:49;48.67;;;25.17;;
76409;SDS011;65238;42.662;23.280;2023-11-21T08:29:16;46.47;;;24.92;;
76409;SDS011;65238;42.662;23.280;2023-11-21T08:31:41;47.65;;;25.17;;
76409;SDS011;65238;42.662;23.280;2023-11-21T08:34:07;49.00;;;24.67;;
76409;SDS011;65238;42.662;23.280;2023-11-21T08:36:33;51.58;;;26.20;;
76409;SDS011;65238;42.662;23.280;2023-11-21T08:38:59;45.10;;;24.15;;
76409;SDS011;65238;42.662;23.280;2023-11-21T08:41:33;44.42;;;23.10;;
76409;SDS011;65238;42.662;23.280;2023-11-21T08:43:58;46.50;;;24.67;;
76409;SDS011;65238;42.662;23.280;2023-11-21T08:46:24;48.33;;;24.23;;
76409;SDS011;65238;42.662;23.280;2023-11-21T08:48:50;45.97;;;24.92;;
76409;SDS011;65238;42.662;23.280;2023-11-21T08:51:17;49.45;;;27.00;;
76409;SDS011;65238;42.662;23.280;2023-11-21T08:53:43;51.95;;;26.80;;
76409;SDS011;65238;42.662;23.280;2023-11-21T08:56:17;54.35;;;27.45;;
76409;SDS011;65238;42.662;23.280;2023-11-21T08:58:45;48.50;;;25.52;;
76409;SDS011;65238;42.662;23.280;2023-11-21T09:01:12;45.35;;;24.88;;
76409;SDS011;65238;42.662;23.280;2023-11-21T09:03:37;43.47;;;23.83;;
76409;SDS011;65238;42.662;23.280;2023-11-21T09:06:03;47.25;;;23.15;;
76409;SDS011;65238;42.662;23.280;2023-11-21T09:08:29;50.65;;;24.13;;
76409;SDS011;65238;42.662;23.280;2023-11-21T09:10:55;47.55;;;23.08;;
76409;SDS011;65238;42.662;23.280;2023-11-21T09:13:20;44.15;;;24.30;;
76409;SDS011;65238;42.662;23.280;2023-11-21T09:15:46;48.30;;;24.67;;
76409;SDS011;65238;42.662;23.280;2023-11-21T09:18:14;47.55;;;24.17;;
76409;SDS011;65238;42.662;23.280;2023-11-21T09:20:40;47.60;;;25.48;;
76409;SDS011;65238;42.662;23.280;2023-11-21T09:23:07;44.85;;;26.50;;
76409;SDS011;65238;42.662;23.280;2023-11-21T09:25:33;47.25;;;23.58;;
76409;SDS011;65238;42.662;23.280;2023-11-21T09:27:58;40.78;;;20.63;;
76409;SDS011;65238;42.662;23.280;2023-11-21T09:30:24;51.42;;;22.77;;
76409;SDS011;65238;42.662;23.280;2023-11-21T09:32:50;44.53;;;19.88;;
76409;SDS011;65238;42.662;23.280;2023-11-21T09:35:16;40.15;;;19.92;;
76409;SDS011;65238;42.662;23.280;2023-11-21T09:37:45;29.98;;;16.98;;
76409;SDS011;65238;42.662;23.280;2023-11-21T09:40:11;27.10;;;15.55;;
76409;SDS011;65238;42.662;23.280;2023-11-21T09:42:55;34.58;;;17.67;;
76409;SDS011;65238;42.662;23.280;2023-11-21T09:45:28;38.10;;;17.60;;
76409;SDS011;65238;42.662;23.280;2023-11-21T09:47:55;33.85;;;15.93;;
76409;SDS011;65238;42.662;23.280;2023-11-21T09:50:21;31.05;;;15.65;;
76409;SDS011;65238;42.662;23.280;2023-11-21T09:53:05;26.77;;;16.30;;
76409;SDS011;65238;42.662;23.280;2023-11-21T09:55:35;30.20;;;15.43;;
76409;SDS011;65238;42.662;23.280;2023-11-21T09:58:02;26.95;;;15.60;;
76409;SDS011;65238;42.662;23.280;2023-11-21T10:00:28;29.95;;;16.67;;
76409;SDS011;65238;42.662;23.280;2023-11-21T10:02:58;38.40;;;16.98;;
76409;SDS011;65238;42.662;23.280;2023-11-21T10:05:24;32.97;;;16.33;;
76409;SDS011;65238;42.662;23.280;2023-11-21T10:07:50;33.72;;;16.65;;
76409;SDS011;65238;42.662;23.280;2023-11-21T10:10:16;34.22;;;17.27;;
76409;SDS011;65238;42.662;23.280;2023-11-21T10:12:44;32.80;;;15.52;;
76409;SDS011;65238;42.662;23.280;2023-11-21T10:15:14;32.55;;;16.23;;
76409;SDS011;65238;42.662;23.280;2023-11-21T10:17:41;27.95;;;15.18;;
76409;SDS011;65238;42.662;23.280;2023-11-21T10:20:13;29.05;;;14.02;;
76409;SDS011;65238;42.662;23.280;2023-11-21T10:22:42;26.42;;;13.48;;
76409;SDS011;65238;42.662;23.280;2023-11-21T10:25:08;23.85;;;12.73;;
76409;SDS011;65238;42.662;23.280;2023-11-21T10:27:34;29.13;;;13.30;;
76409;SDS011;65238;42.662;23.280;2023-11-21T10:30:01;26.80;;;12.88;;
76409;SDS011;65238;42.662;23.280;2023-11-21T10:32:29;23.25;;;12.40;;
76409;SDS011;65238;42.662;23.280;2023-11-21T10:34:57;27.35;;;13.73;;
76409;SDS011;65238;42.662;23.280;2023-11-21T10:37:25;22.52;;;13.25;;
76409;SDS011;65238;42.662;23.280;2023-11-21T10:39:56;28.88;;;14.63;;
76409;SDS011;65238;42.662;23.280;2023-11-21T10:42:23;29.13;;;13.35;;
76409;SDS011;65238;42.662;23.280;2023-11-21T10:44:49;23.05;;;13.55;;
76409;SDS011;65238;42.662;23.280;2023-11-21T10:47:15;31.50;;;13.77;;
76409;SDS011;65238;42.662;23.280;2023-11-21T10:49:44;27.98;;;14.40;;
76409;SDS011;65238;42.662;23.280;2023-11-21T10:52:10;27.33;;;13.52;;
76409;SDS011;65238;42.662;23.280;2023-11-21T10:54:42;26.45;;;14.93;;
76409;SDS011;65238;42.662;23.280;2023-11-21T10:57:08;30.02;;;14.50;;
76409;SDS011;65238;42.662;23.280;2023-11-21T10:59:35;28.02;;;15.32;;
76409;SDS011;65238;42.662;23.280;2023-11-21T11:02:01;26.88;;;14.05;;
76409;SDS011;65238;42.662;23.280;2023-11-21T11:04:28;25.58;;;13.85;;
76409;SDS011;65238;42.662;23.280;2023-11-21T11:06:55;31.67;;;14.50;;
76409;SDS011;65238;42.662;23.280;2023-11-21T11:09:22;30.67;;;14.55;;
76409;SDS011;65238;42.662;23.280;2023-11-21T11:11:48;29.40;;;15.60;;
76409;SDS011;65238;42.662;23.280;2023-11-21T11:14:14;28.75;;;15.23;;
76409;SDS011;65238;42.662;23.280;2023-11-21T11:16:40;27.15;;;15.70;;
76409;SDS011;65238;42.662;23.280;2023-11-21T11:19:09;32.17;;;15.63;;
76409;SDS011;65238;42.662;23.280;2023-11-21T11:32:27;33.88;;;19.00;;
76409;SDS011;65238;42.662;23.280;2023-11-21T11:35:04;33.88;;;18.67;;
76409;SDS011;65238;42.662;23.280;2023-11-21T11:37:34;40.28;;;20.67;;
76409;SDS011;65238;42.662;23.280;2023-11-21T11:40:00;40.33;;;19.73;;
76409;SDS011;65238;42.662;23.280;2023-11-21T11:42:26;36.80;;;20.55;;
76409;SDS011;65238;42.662;23.280;2023-11-21T11:44:52;39.83;;;20.10;;
76409;SDS011;65238;42.662;23.280;2023-11-21T11:47:24;43.45;;;22.30;;
76409;SDS011;65238;42.662;23.280;2023-11-21T11:52:37;39.28;;;21.50;;
76409;SDS011;65238;42.662;23.280;2023-11-21T11:55:06;35.65;;;20.98;;
76409;SDS011;65238;42.662;23.280;2023-11-21T11:57:37;44.53;;;22.33;;
76409;SDS011;65238;42.662;23.280;2023-11-21T12:02:46;38.30;;;21.38;;
76409;SDS011;65238;42.662;23.280;2023-11-21T12:05:13;37.33;;;21.75;;
76409;SDS011;65238;42.662;23.280;2023-11-21T12:07:43;32.95;;;18.13;;
76409;SDS011;65238;42.662;23.280;2023-11-21T12:10:16;34.05;;;17.35;;
76409;SDS011;65238;42.662;23.280;2023-11-21T12:12:43;28.98;;;16.55;;
76409;SDS011;65238;42.662;23.280;2023-11-21T12:15:10;28.92;;;17.55;;
76409;SDS011;65238;42.662;23.280;2023-11-21T12:17:37;27.50;;;17.13;;
76409;SDS011;65238;42.662;23.280;2023-11-21T12:20:03;29.25;;;17.88;;
76409;SDS011;65238;42.662;23.280;2023-11-21T12:22:31;39.83;;;20.27;;
76409;SDS011;65238;42.662;23.280;2023-11-21T12:24:56;41.10;;;23.30;;
76409;SDS011;65238;42.662;23.280;2023-11-21T12:27:22;41.17;;;24.02;;
76409;SDS011;65238;42.662;23.280;2023-11-21T12:29:47;49.00;;;24.17;;
76409;SDS011;65238;42.662;23.280;2023-11-21T12:32:13;45.83;;;24.70;;
76409;SDS011;65238;42.662;23.280;2023-11-21T12:34:40;45.63;;;25.75;;
76409;SDS011;65238;42.662;23.280;2023-11-21T12:37:06;51.25;;;26.75;;
76409;SDS011;65238;42.662;23.280;2023-11-21T12:39:31;52.25;;;28.83;;
76409;SDS011;65238;42.662;23.280;2023-11-21T12:41:57;57.38;;;29.50;;
76409;SDS011;65238;42.662;23.280;2023-11-21T12:44:22;57.03;;;31.08;;
76409;SDS011;65238;42.662;23.280;2023-11-21T12:46:49;59.00;;;32.05;;
76409;SDS011;65238;42.662;23.280;2023-11-21T12:49:15;58.45;;;33.75;;
76409;SDS011;65238;42.662;23.280;2023-11-21T12:51:44;59.85;;;35.38;;
76409;SDS011;65238;42.662;23.280;2023-11-21T12:54:13;62.83;;;35.92;;
76409;SDS011;65238;42.662;23.280;2023-11-21T12:56:39;65.20;;;36.67;;
76409;SDS011;65238;42.662;23.280;2023-11-21T12:59:05;63.72;;;36.55;;
76409;SDS011;65238;42.662;23.280;2023-11-21T13:01:30;64.78;;;36.58;;
76409;SDS011;65238;42.662;23.280;2023-11-21T13:03:57;58.85;;;36.53;;
76409;SDS011;65238;42.662;23.280;2023-11-21T13:06:27;65.35;;;36.60;;
76409;SDS011;65238;42.662;23.280;2023-11-21T13:08:54;59.90;;;35.83;;
76409;SDS011;65238;42.662;23.280;2023-11-21T13:11:22;65.80;;;36.05;;
76409;SDS011;65238;42.662;23.280;2023-11-21T13:13:47;63.45;;;34.50;;
76409;SDS011;65238;42.662;23.280;2023-11-21T13:16:17;56.20;;;33.42;;
76409;SDS011;65238;42.662;23.280;2023-11-21T13:18:45;58.83;;;32.90;;
76409;SDS011;65238;42.662;23.280;2023-11-21T13:21:11;51.67;;;32.15;;
76409;SDS011;65238;42.662;23.280;2023-11-21T13:23:41;54.90;;;33.33;;
76409;SDS011;65238;42.662;23.280;2023-11-21T13:26:07;60.97;;;33.22;;
76409;SDS011;65238;42.662;23.280;2023-11-21T13:28:34;59.55;;;31.13;;
76409;SDS011;65238;42.662;23.280;2023-11-21T13:31:00;59.75;;;33.15;;
76409;SDS011;65238;42.662;23.280;2023-11-21T13:33:28;61.45;;;34.63;;
76409;SDS011;65238;42.662;23.280;2023-11-21T13:35:53;56.50;;;33.90;;
76409;SDS011;65238;42.662;23.280;2023-11-21T13:38:21;63.70;;;34.17;;
76409;SDS011;65238;42.662;23.280;2023-11-21T13:40:52;58.38;;;34.47;;
76409;SDS011;65238;42.662;23.280;2023-11-21T13:43:23;62.17;;;34.10;;
76409;SDS011;65238;42.662;23.280;2023-11-21T13:45:50;60.55;;;34.47;;
76409;SDS011;65238;42.662;23.280;2023-11-21T13:48:23;60.17;;;34.38;;
76409;SDS011;65238;42.662;23.280;2023-11-21T13:50:56;68.68;;;36.40;;
76409;SDS011;65238;42.662;23.280;2023-11-21T13:53:33;70.95;;;39.15;;
76409;SDS011;65238;42.662;23.280;2023-11-21T13:56:01;68.18;;;38.67;;
76409;SDS011;65238;42.662;23.280;2023-11-21T13:58:27;67.00;;;41.40;;
76409;SDS011;65238;42.662;23.280;2023-11-21T14:01:30;70.85;;;41.35;;
76409;SDS011;65238;42.662;23.280;2023-11-21T14:03:59;75.40;;;42.33;;
76409;SDS011;65238;42.662;23.280;2023-11-21T14:06:42;75.53;;;40.92;;
76409;SDS011;65238;42.662;23.280;2023-11-21T14:09:17;71.70;;;41.28;;
76409;SDS011;65238;42.662;23.280;2023-11-21T14:11:54;75.22;;;42.45;;
76409;SDS011;65238;42.662;23.280;2023-11-21T14:14:22;71.47;;;41.53;;
76409;SDS011;65238;42.662;23.280;2023-11-21T14:16:50;70.57;;;40.92;;
76409;SDS011;65238;42.662;23.280;2023-11-21T14:19:16;76.25;;;40.42;;
76409;SDS011;65238;42.662;23.280;2023-11-21T14:21:45;72.13;;;40.10;;
76409;SDS011;65238;42.662;23.280;2023-11-21T14:24:13;73.57;;;40.90;;
76409;SDS011;65238;42.662;23.280;2023-11-21T14:26:40;73.20;;;41.63;;